createdAt,value
2023-10-05T00:01:38.365Z,64.43
2023-10-05T00:04:05.419Z,63.04
2023-10-05T00:06:32.294Z,64.61
2023-10-05T00:08:59.168Z,64.23
2023-10-05T00:11:27.439Z,64.58
2023-10-05T00:13:56.690Z,65.05
2023-10-05T00:16:23.906Z,65.51
2023-10-05T00:18:52.201Z,63.39
2023-10-05T00:21:20.592Z,62.78
2023-10-05T00:23:48.407Z,62.60
2023-10-05T00:26:15.234Z,61.61
2023-10-05T00:28:42.095Z,61.51
2023-10-05T00:31:09.092Z,61.36
2023-10-05T00:33:35.964Z,61.15
2023-10-05T00:36:02.808Z,62.80
2023-10-05T00:38:29.801Z,62.18
2023-10-05T00:40:56.649Z,63.48
2023-10-05T00:43:23.530Z,63.51
2023-10-05T00:45:51.247Z,63.21
2023-10-05T00:48:19.368Z,62.62
2023-10-05T00:50:46.367Z,61.96
2023-10-05T00:53:13.759Z,62.62
2023-10-05T00:55:43.139Z,62.22
2023-10-05T00:58:10.119Z,62.15
2023-10-05T01:00:37.062Z,61.66
2023-10-05T01:03:04.162Z,60.84
2023-10-05T01:05:31.187Z,61.08
2023-10-05T01:07:58.641Z,62.80
2023-10-05T01:10:25.900Z,63.01
2023-10-05T01:12:52.804Z,64.79
2023-10-05T01:15:21.335Z,65.70
2023-10-05T01:17:49.024Z,65.21
2023-10-05T01:20:17.284Z,64.66
2023-10-05T01:22:44.211Z,64.67
2023-10-05T01:25:12.281Z,64.42
2023-10-05T01:27:39.306Z,65.54
2023-10-05T01:30:06.764Z,66.28
2023-10-05T01:32:33.687Z,69.01
2023-10-05T01:35:04.224Z,69.68
2023-10-05T01:37:32.961Z,71.12
2023-10-05T01:39:59.913Z,72.39
2023-10-05T01:42:26.907Z,70.59
2023-10-05T01:44:53.760Z,69.56
2023-10-05T01:47:20.591Z,69.37
2023-10-05T01:49:47.841Z,68.61
2023-10-05T01:52:14.737Z,68.72
2023-10-05T01:54:41.620Z,67.36
2023-10-05T01:57:08.394Z,68.16
2023-10-05T01:59:36.011Z,70.90
2023-10-05T02:02:03.055Z,72.02
2023-10-05T02:04:30.047Z,71.80
2023-10-05T02:06:56.933Z,72.14
2023-10-05T02:09:23.858Z,74.99
2023-10-05T02:11:50.736Z,73.53
2023-10-05T02:14:17.807Z,71.28
2023-10-05T02:16:45.165Z,69.37
2023-10-05T02:19:12.142Z,70.82
2023-10-05T02:21:39.208Z,71.84
2023-10-05T02:24:08.049Z,72.77
2023-10-05T02:26:34.969Z,71.90
2023-10-05T02:29:03.142Z,71.18
2023-10-05T02:31:30.247Z,72.43
2023-10-05T02:33:57.444Z,71.85
2023-10-05T02:36:24.383Z,71.29
2023-10-05T02:38:51.226Z,72.61
2023-10-05T02:41:18.411Z,72.82
2023-10-05T02:43:46.301Z,71.43
2023-10-05T02:49:35.149Z,69.38
2023-10-05T02:52:02.003Z,70.14
2023-10-05T02:54:28.945Z,69.61
2023-10-05T02:56:55.918Z,70.87
2023-10-05T02:59:26.965Z,70.87
2023-10-05T03:01:54.010Z,68.89
2023-10-05T03:04:21.412Z,70.02
2023-10-05T03:06:48.805Z,69.52
2023-10-05T03:09:15.925Z,68.83
2023-10-05T03:11:44.009Z,68.34
2023-10-05T03:14:11.165Z,68.66
2023-10-05T03:16:39.190Z,68.80
2023-10-05T03:19:06.523Z,69.16
2023-10-05T03:21:33.478Z,67.33
2023-10-05T03:24:00.345Z,66.72
2023-10-05T03:26:27.320Z,66.74
2023-10-05T03:28:54.184Z,66.87
2023-10-05T03:31:21.153Z,66.58
2023-10-05T03:33:48.100Z,66.74
2023-10-05T03:36:15.269Z,66.50
2023-10-05T03:38:45.310Z,67.11
2023-10-05T03:41:12.187Z,67.63
2023-10-05T03:43:39.078Z,69.54
2023-10-05T03:46:06.695Z,70.84
2023-10-05T04:09:34.436Z,69.14
2023-10-05T04:12:01.536Z,69.30
2023-10-05T04:14:28.349Z,68.95
2023-10-05T04:16:55.301Z,68.58
2023-10-05T04:19:22.248Z,67.21
2023-10-05T04:21:49.235Z,66.49
2023-10-05T04:24:16.740Z,66.33
2023-10-05T04:26:43.930Z,66.52
2023-10-05T04:29:10.769Z,66.45
2023-10-05T04:31:37.837Z,66.16
2023-10-05T04:34:05.627Z,66.80
2023-10-05T04:36:33.170Z,66.86
2023-10-05T04:39:00.319Z,66.41
2023-10-05T04:41:29.580Z,64.93
2023-10-05T04:43:57.101Z,65.17
2023-10-05T04:46:24.841Z,64.31
2023-10-05T04:48:52.289Z,63.48
2023-10-05T04:51:19.233Z,62.58
2023-10-05T04:53:46.196Z,63.50
2023-10-05T04:56:13.101Z,61.74
2023-10-05T04:58:40.090Z,60.26
2023-10-05T05:01:07.146Z,60.24
2023-10-05T05:03:34.221Z,59.95
2023-10-05T05:06:01.251Z,59.59
2023-10-05T05:08:28.421Z,59.08
2023-10-05T05:10:55.217Z,58.96
2023-10-05T05:13:22.162Z,58.23
2023-10-05T05:15:49.233Z,57.85
2023-10-05T05:18:16.396Z,58.51
2023-10-05T05:20:43.830Z,58.84
2023-10-05T05:23:10.756Z,57.96
2023-10-05T05:25:37.737Z,57.71
2023-10-05T05:28:05.776Z,56.88
2023-10-05T05:30:36.309Z,56.81
2023-10-05T05:33:04.267Z,56.68
2023-10-05T05:35:31.224Z,57.08
2023-10-05T05:37:58.170Z,57.47
2023-10-05T05:40:25.055Z,57.60
2023-10-05T05:42:51.964Z,56.67
2023-10-05T05:45:18.953Z,57.34
2023-10-05T05:47:46.135Z,58.20
2023-10-05T05:50:13.886Z,58.47
2023-10-05T05:52:40.895Z,59.19
2023-10-05T05:55:08.017Z,58.89
2023-10-05T05:57:34.946Z,57.70
2023-10-05T06:00:01.895Z,57.50
2023-10-05T06:02:28.855Z,56.27
2023-10-05T06:04:55.918Z,56.04
2023-10-05T06:07:22.977Z,55.55
2023-10-05T06:09:49.920Z,56.43
2023-10-05T06:12:16.839Z,55.73
2023-10-05T06:14:44.288Z,56.44
2023-10-05T06:17:11.876Z,56.73
2023-10-05T06:19:39.254Z,54.96
2023-10-05T06:22:06.294Z,54.72
2023-10-05T06:24:33.533Z,54.81
2023-10-05T06:27:00.461Z,54.50
2023-10-05T06:29:27.689Z,53.89
2023-10-05T06:31:54.848Z,53.40
2023-10-05T06:34:21.751Z,53.89
2023-10-05T06:36:48.802Z,55.27
2023-10-05T06:39:24.708Z,55.48
2023-10-05T06:41:54.677Z,54.28
2023-10-05T06:44:21.619Z,54.40
2023-10-05T06:46:48.528Z,53.27
2023-10-05T07:34:15.065Z,46.58
2023-10-05T07:36:42.034Z,46.01
2023-10-05T07:39:08.839Z,47.09
2023-10-05T07:41:35.771Z,47.17
2023-10-05T07:44:08.026Z,47.08
2023-10-05T07:46:35.665Z,47.50
2023-10-05T07:49:05.750Z,47.65
2023-10-05T07:51:32.611Z,46.46
2023-10-05T07:53:59.498Z,46.39
2023-10-05T07:56:26.525Z,46.81
2023-10-05T07:58:53.386Z,46.54
2023-10-05T08:01:20.306Z,45.91
2023-10-05T08:03:47.291Z,46.46
2023-10-05T08:06:14.318Z,46.71
2023-10-05T08:08:41.216Z,46.15
2023-10-05T08:11:08.559Z,45.58
2023-10-05T08:13:35.393Z,45.08
2023-10-05T08:16:02.434Z,44.64
2023-10-05T08:18:29.364Z,44.98
2023-10-05T08:20:56.346Z,45.03
2023-10-05T08:23:29.606Z,43.86
2023-10-05T08:25:56.520Z,43.09
2023-10-05T08:28:23.387Z,44.08
2023-10-05T08:30:50.311Z,42.67
2023-10-05T08:33:17.263Z,41.93
2023-10-05T08:35:44.207Z,40.73
2023-10-05T08:38:11.379Z,39.85
2023-10-05T08:40:38.346Z,40.72
2023-10-05T08:43:07.123Z,40.38
2023-10-05T08:45:55.356Z,39.55
2023-10-05T08:48:24.860Z,39.29
2023-10-05T08:50:55.802Z,38.55
2023-10-05T08:53:23.475Z,37.92
2023-10-05T08:55:51.066Z,37.47
2023-10-05T08:58:19.465Z,36.79
2023-10-05T09:00:49.590Z,37.05
2023-10-05T09:03:16.514Z,36.83
2023-10-05T09:06:06.952Z,37.07
2023-10-05T09:08:54.743Z,35.81
2023-10-05T09:11:31.591Z,34.74
2023-10-05T09:14:02.632Z,34.23
2023-10-05T09:16:29.703Z,33.81
2023-10-05T09:18:56.557Z,33.67
2023-10-05T09:21:23.465Z,33.98
2023-10-05T09:23:50.334Z,33.17
2023-10-05T09:26:24.612Z,33.58
2023-10-05T09:28:51.406Z,32.59
2023-10-05T09:31:19.605Z,32.02
2023-10-05T09:33:51.011Z,34.23
2023-10-05T09:36:18.326Z,34.34
2023-10-05T09:38:45.689Z,34.24
2023-10-05T09:41:16.266Z,34.03
2023-10-05T09:43:44.586Z,35.33
2023-10-05T09:46:13.220Z,34.58
2023-10-05T09:48:40.947Z,34.32
2023-10-05T09:51:11.014Z,35.48
2023-10-05T09:53:39.042Z,35.06
2023-10-05T09:56:06.158Z,35.62
2023-10-05T09:58:34.063Z,35.21
2023-10-05T10:01:01.290Z,34.70
2023-10-05T10:03:28.691Z,34.21
2023-10-05T10:06:01.270Z,34.80
2023-10-05T10:08:32.630Z,33.30
2023-10-05T10:11:02.574Z,33.61
2023-10-05T10:13:31.009Z,34.08
2023-10-05T10:15:58.018Z,33.38
2023-10-05T10:18:27.830Z,33.29
2023-10-05T10:20:54.821Z,33.13
2023-10-05T10:23:23.022Z,33.92
2023-10-05T10:25:50.298Z,33.65
2023-10-05T10:28:20.075Z,34.00
2023-10-05T10:31:19.232Z,33.94
2023-10-05T10:33:47.407Z,33.90
2023-10-05T10:36:15.142Z,33.14
2023-10-05T10:38:42.142Z,32.32
2023-10-05T10:41:10.985Z,32.57
2023-10-05T10:43:37.946Z,32.28
2023-10-05T10:46:05.416Z,32.10
2023-10-05T10:48:32.256Z,32.23
2023-10-05T10:50:59.860Z,31.89
2023-10-05T10:53:28.620Z,30.76
2023-10-05T10:55:58.524Z,28.58
2023-10-05T10:58:25.873Z,29.43
2023-10-05T11:01:00.598Z,29.92
2023-10-05T11:03:27.657Z,29.31
2023-10-05T11:05:55.225Z,28.83
2023-10-05T11:08:22.513Z,28.37
2023-10-05T11:11:10.813Z,28.98
2023-10-05T11:13:41.610Z,28.80
2023-10-05T11:16:08.558Z,27.95
2023-10-05T11:18:35.581Z,28.33
2023-10-05T11:21:13.049Z,28.11
2023-10-05T11:23:47.360Z,27.47
2023-10-05T11:26:15.598Z,27.98
2023-10-05T11:28:42.610Z,27.45
2023-10-05T11:31:17.201Z,27.58
2023-10-05T11:34:27.563Z,27.55
2023-10-05T11:36:42.234Z,27.55
2023-10-05T11:39:12.185Z,28.13
2023-10-05T11:41:39.479Z,29.06
2023-10-05T11:44:06.563Z,28.70
2023-10-05T11:46:43.902Z,27.96
2023-10-05T11:49:11.543Z,28.25
2023-10-05T11:51:38.386Z,27.64
2023-10-05T11:54:05.548Z,28.00
2023-10-05T11:56:32.548Z,28.52
2023-10-05T11:59:00.258Z,28.35
2023-10-05T12:01:28.414Z,28.36
2023-10-05T12:03:55.688Z,29.38
2023-10-05T12:06:23.222Z,27.68
2023-10-05T12:08:51.397Z,26.24
2023-10-05T12:11:18.380Z,26.74
2023-10-05T12:13:45.348Z,27.57
2023-10-05T12:16:12.626Z,28.67
2023-10-05T12:18:40.359Z,28.86
2023-10-05T12:21:07.181Z,27.83
2023-10-05T12:23:34.041Z,28.64
2023-10-05T12:26:00.843Z,27.64
2023-10-05T12:28:27.695Z,27.19
2023-10-05T12:30:54.637Z,28.21
2023-10-05T12:33:21.573Z,28.10
2023-10-05T12:35:51.775Z,29.19
2023-10-05T12:38:19.754Z,28.79
2023-10-05T12:40:47.418Z,28.82
2023-10-05T12:43:17.780Z,28.87
2023-10-05T12:45:45.459Z,29.32
2023-10-05T12:48:12.388Z,29.24
2023-10-05T12:50:39.391Z,28.95
2023-10-05T12:53:06.514Z,28.64
2023-10-05T12:55:33.401Z,28.63
2023-10-05T12:58:00.692Z,28.58
2023-10-05T13:00:28.354Z,28.62
2023-10-05T13:02:56.086Z,28.62
2023-10-05T13:05:30.322Z,29.35
2023-10-05T13:07:59.894Z,29.41
2023-10-05T13:10:26.856Z,28.41
2023-10-05T13:12:55.077Z,29.06
2023-10-05T13:15:22.929Z,30.02
2023-10-05T13:17:49.820Z,30.09
2023-10-05T13:20:16.851Z,30.96
2023-10-05T13:22:43.939Z,30.35
2023-10-05T13:25:11.158Z,30.07
2023-10-05T13:27:38.312Z,29.42
2023-10-05T13:30:05.675Z,29.28
2023-10-05T13:32:32.919Z,28.22
2023-10-05T13:35:01.520Z,28.28
2023-10-05T13:37:29.625Z,28.35
2023-10-05T13:39:56.636Z,28.56
2023-10-05T13:42:23.508Z,28.71
2023-10-05T13:44:50.395Z,28.62
2023-10-05T13:47:17.365Z,29.69
2023-10-05T13:49:44.473Z,29.89
2023-10-05T13:52:11.500Z,29.74
2023-10-05T13:54:38.410Z,30.03
2023-10-05T13:57:05.334Z,29.52
2023-10-05T13:59:32.323Z,29.20
2023-10-05T14:01:59.243Z,29.36
2023-10-05T14:04:26.211Z,29.40
2023-10-05T14:06:53.100Z,29.20
2023-10-05T14:09:21.024Z,28.70
2023-10-05T14:11:47.930Z,28.79
2023-10-05T14:14:14.883Z,29.39
2023-10-05T14:16:41.866Z,30.19
2023-10-05T14:19:09.015Z,30.31
2023-10-05T14:21:36.170Z,31.21
2023-10-05T14:24:03.081Z,30.97
2023-10-05T14:26:30.018Z,31.02
2023-10-05T14:28:57.170Z,30.70
2023-10-05T14:31:24.057Z,30.83
2023-10-05T14:33:51.296Z,30.47
2023-10-05T14:36:18.805Z,30.32
2023-10-05T14:38:45.672Z,30.65
2023-10-05T14:41:12.546Z,31.20
2023-10-05T14:43:39.592Z,31.73
2023-10-05T14:46:06.628Z,32.11
2023-10-05T14:48:33.738Z,32.56
2023-10-05T14:51:02.126Z,32.88
2023-10-05T14:53:29.256Z,32.80
2023-10-05T14:55:56.257Z,32.60
2023-10-05T14:58:23.825Z,32.70
2023-10-05T15:00:50.802Z,32.59
2023-10-05T15:03:17.754Z,32.77
2023-10-05T15:05:44.737Z,32.82
2023-10-05T15:08:15.419Z,32.52
2023-10-05T15:10:45.072Z,32.64
2023-10-05T15:13:11.930Z,32.13
2023-10-05T15:15:38.781Z,32.34
2023-10-05T15:18:05.963Z,32.90
2023-10-05T15:20:32.803Z,32.70
2023-10-05T15:22:59.754Z,32.74
2023-10-05T15:25:26.999Z,32.24
2023-10-05T15:27:53.974Z,32.28
2023-10-05T15:30:20.882Z,32.51
2023-10-05T15:32:48.946Z,32.11
2023-10-05T15:35:17.526Z,32.71
2023-10-05T15:37:46.768Z,32.59
2023-10-05T15:40:14.895Z,32.56
2023-10-05T15:42:47.254Z,32.72
2023-10-05T15:45:16.872Z,32.28
2023-10-05T15:47:44.837Z,31.75
2023-10-05T15:50:19.608Z,32.37
2023-10-05T15:52:48.891Z,32.30
2023-10-05T15:55:16.886Z,32.63
2023-10-05T15:57:45.882Z,32.59
2023-10-05T16:00:13.354Z,32.97
2023-10-05T16:02:40.338Z,32.91
2023-10-05T16:05:13.481Z,33.35
2023-10-05T16:07:40.431Z,33.29
2023-10-05T16:10:07.908Z,33.52
2023-10-05T16:12:34.905Z,33.88
2023-10-05T16:15:01.855Z,33.91
2023-10-05T16:17:28.864Z,33.45
2023-10-05T16:19:56.342Z,33.57
2023-10-05T16:22:23.260Z,33.22
2023-10-05T16:24:50.047Z,33.15
2023-10-05T16:27:17.153Z,33.27
2023-10-05T16:29:43.931Z,33.21
2023-10-05T16:32:11.414Z,34.45
2023-10-05T16:34:38.548Z,34.38
2023-10-05T16:37:06.052Z,35.19
2023-10-05T16:39:32.903Z,34.97
2023-10-05T16:42:02.835Z,35.23
2023-10-05T16:44:31.061Z,35.05
2023-10-05T16:46:58.753Z,35.32
2023-10-05T16:49:26.228Z,35.21
2023-10-05T16:51:54.799Z,35.27
2023-10-05T16:54:22.126Z,35.20
2023-10-05T16:56:54.763Z,35.30
2023-10-05T16:59:22.017Z,35.38
2023-10-05T17:01:48.919Z,35.39
2023-10-05T17:04:16.030Z,35.36
2023-10-05T17:06:42.958Z,35.24
2023-10-05T17:09:11.522Z,35.31
2023-10-05T17:11:39.699Z,35.46
2023-10-05T17:14:06.577Z,35.50
2023-10-05T17:16:33.445Z,35.73
2023-10-05T17:19:01.129Z,35.67
2023-10-05T17:21:29.574Z,35.95
2023-10-05T17:24:06.412Z,35.81
2023-10-05T17:26:41.611Z,36.21
2023-10-05T17:29:09.047Z,36.46
2023-10-05T17:31:36.937Z,36.65
2023-10-05T17:34:04.128Z,36.74
2023-10-05T17:36:31.026Z,36.91
2023-10-05T17:38:57.926Z,37.01
2023-10-05T17:41:24.907Z,36.84
2023-10-05T17:43:51.975Z,36.89
2023-10-05T17:46:18.961Z,37.08
2023-10-05T17:48:46.055Z,36.71
2023-10-05T17:51:13.058Z,36.89
2023-10-05T17:53:39.889Z,37.55
2023-10-05T17:56:06.795Z,37.70
2023-10-05T17:58:33.725Z,37.69
2023-10-05T18:01:00.668Z,38.62
2023-10-05T18:03:27.816Z,38.81
2023-10-05T18:05:55.385Z,39.18
2023-10-05T18:08:23.118Z,40.39
2023-10-05T18:10:50.305Z,40.50
2023-10-05T18:13:17.869Z,40.58
2023-10-05T18:15:44.869Z,40.57
2023-10-05T18:18:11.877Z,40.05
2023-10-05T18:20:38.863Z,40.43
2023-10-05T18:23:05.669Z,41.38
2023-10-05T18:25:34.067Z,40.67
2023-10-05T18:28:01.189Z,41.19
2023-10-05T18:30:29.447Z,41.75
2023-10-05T18:32:57.009Z,41.52
2023-10-05T18:35:24.036Z,41.33
2023-10-05T18:37:51.111Z,41.26
2023-10-05T18:40:18.182Z,41.50
2023-10-05T18:42:45.210Z,41.66
2023-10-05T18:45:16.181Z,41.11
2023-10-05T18:47:44.253Z,41.28
2023-10-05T18:50:13.183Z,41.09
2023-10-05T18:52:40.822Z,41.00
2023-10-05T18:55:08.082Z,40.90
2023-10-05T18:57:37.707Z,40.91
2023-10-05T19:00:04.839Z,40.83
2023-10-05T19:02:32.045Z,40.71
2023-10-05T19:04:59.271Z,40.88
2023-10-05T19:07:29.344Z,40.81
2023-10-05T19:09:56.606Z,40.81
2023-10-05T19:12:23.572Z,40.85
2023-10-05T19:14:51.610Z,41.12
2023-10-05T19:17:18.458Z,41.28
2023-10-05T19:19:45.362Z,41.13
2023-10-05T19:22:12.186Z,41.60
2023-10-05T19:24:39.344Z,41.45
2023-10-05T19:27:07.855Z,41.73
2023-10-05T19:29:34.920Z,41.65
2023-10-05T19:32:01.932Z,41.82
2023-10-05T19:34:28.953Z,43.31
2023-10-05T19:36:55.963Z,43.59
2023-10-05T19:39:23.024Z,43.33
2023-10-05T19:41:49.907Z,44.01
2023-10-05T19:44:16.785Z,43.19
2023-10-05T19:46:43.855Z,43.80
2023-10-05T19:49:10.816Z,43.99
2023-10-05T19:51:37.727Z,44.66
2023-10-05T19:54:05.880Z,44.66
2023-10-05T19:56:37.550Z,44.02
2023-10-05T19:59:05.048Z,43.92
2023-10-05T20:01:32.069Z,44.05
2023-10-05T20:03:59.205Z,43.77
2023-10-05T20:06:26.147Z,43.83
2023-10-05T20:08:53.221Z,43.62
2023-10-05T20:11:20.500Z,43.60
2023-10-05T20:13:47.467Z,44.00
2023-10-05T20:16:15.546Z,43.80
2023-10-05T20:18:42.851Z,45.43
2023-10-05T20:21:10.679Z,43.92
2023-10-05T20:23:38.064Z,44.42
2023-10-05T20:26:05.513Z,44.18
2023-10-05T20:28:32.460Z,44.16
2023-10-05T20:30:59.363Z,44.05
2023-10-05T20:33:26.544Z,43.95
2023-10-05T20:36:03.865Z,43.91
2023-10-05T20:38:30.689Z,43.95
2023-10-05T20:41:01.784Z,43.78
2023-10-05T20:43:28.866Z,44.26
2023-10-05T20:45:55.755Z,44.07
2023-10-05T20:48:23.354Z,44.13
2023-10-05T20:50:53.756Z,43.97
2023-10-05T20:53:20.561Z,45.02
2023-10-05T20:55:47.517Z,46.09
2023-10-05T20:58:14.490Z,45.61
2023-10-05T21:00:41.337Z,46.25
2023-10-05T21:03:08.517Z,46.13
2023-10-05T21:05:35.928Z,46.56
2023-10-05T21:08:04.254Z,46.77
2023-10-05T21:10:31.202Z,46.83
2023-10-05T21:12:58.169Z,46.19
2023-10-05T21:15:25.011Z,46.43
2023-10-05T21:17:51.825Z,47.11
2023-10-05T21:20:18.803Z,46.73
2023-10-05T21:22:45.719Z,46.70
2023-10-05T21:25:12.593Z,47.75
2023-10-05T21:27:39.469Z,46.96
2023-10-05T21:30:06.941Z,46.36
2023-10-05T21:32:34.475Z,48.15
2023-10-05T21:35:01.483Z,47.21
2023-10-05T21:37:28.416Z,47.43
2023-10-05T21:39:55.477Z,47.22
2023-10-05T21:42:22.369Z,47.14
2023-10-05T21:44:49.393Z,47.23
2023-10-05T21:47:16.388Z,46.90
2023-10-05T21:49:43.496Z,46.29
2023-10-05T21:52:10.353Z,45.96
2023-10-05T21:54:37.164Z,45.99
2023-10-05T21:57:04.243Z,46.24
2023-10-05T21:59:31.142Z,46.53
2023-10-05T22:01:58.142Z,47.17
2023-10-05T22:04:25.272Z,47.54
2023-10-05T22:06:52.114Z,48.96
2023-10-05T22:09:18.936Z,48.74
2023-10-05T22:11:46.002Z,47.80
2023-10-05T22:14:12.922Z,48.21
2023-10-05T22:16:39.874Z,47.86
2023-10-05T22:19:07.124Z,48.61
2023-10-05T22:21:34.028Z,48.27
2023-10-05T22:24:00.910Z,47.50
2023-10-05T22:26:27.886Z,48.28
2023-10-05T22:28:54.712Z,48.08
2023-10-05T22:31:21.676Z,47.64
2023-10-05T22:33:48.941Z,47.82
2023-10-05T22:36:15.844Z,47.45
2023-10-05T22:38:44.803Z,47.27
2023-10-05T22:41:12.620Z,46.77
2023-10-05T22:43:39.661Z,47.20
2023-10-05T22:46:17.361Z,47.00
2023-10-05T22:48:45.170Z,47.27
2023-10-05T22:51:18.934Z,47.45
2023-10-05T22:53:48.042Z,48.12
2023-10-05T22:56:14.860Z,48.64
2023-10-05T22:58:41.746Z,49.18
2023-10-05T23:01:08.738Z,48.33
2023-10-05T23:03:35.666Z,48.41
2023-10-05T23:06:02.855Z,50.00
2023-10-05T23:08:29.766Z,49.42
2023-10-05T23:10:56.644Z,49.74
2023-10-05T23:13:23.685Z,49.85
2023-10-05T23:15:50.990Z,49.48
2023-10-05T23:18:17.966Z,49.01
2023-10-05T23:20:45.935Z,49.73
2023-10-05T23:23:12.821Z,49.56
2023-10-05T23:25:39.769Z,50.22
2023-10-05T23:28:06.916Z,49.86
2023-10-05T23:30:33.748Z,49.79
2023-10-05T23:33:00.926Z,49.36
2023-10-05T23:35:28.716Z,49.31
2023-10-05T23:37:55.578Z,49.44
2023-10-05T23:40:22.766Z,49.67
2023-10-05T23:42:49.815Z,49.44
2023-10-05T23:45:16.982Z,49.38
2023-10-05T23:47:44.689Z,50.08
2023-10-05T23:50:11.871Z,49.60
2023-10-05T23:52:39.417Z,49.35
2023-10-05T23:55:07.151Z,49.17
2023-10-05T23:57:34.069Z,49.25
